Startpagina
METAR-TAF:

METAR-TAF

Vliegvelden :

Luchthaven Bujumbura

Bujumbura, Burundi

breedte: 03-19S, lengte: 029-19E, hoogte: 782 m

METAR: ontbreekt

Tijdstip: 21:49 (19:49 UTC)

Verwachting

Dit bericht is 2 uur en het 49 minuten geleden gemaakt, om 17:00 UTC
Verwachting geldig van 23 om 18 UTC tot 24 om 24 UTC
Wind kt uit het noorden
Zicht 10 km of meer
geen wolken onder 1500 m en geen cumulonimbus
Wijzigt naar
van 24 om 02 UTC tot 24 om 04 UTC
Wind 2 kt uit het noorden
Zicht 10 km of meer
Weinig wolken op 2500 ft
Gebroken wolken op 10000 ft
Wijzigt naar
van 24 om 07 UTC tot 24 om 09 UTC
Wind 10 kt uit het zuiden met uitschieters tot 25 kt
Zicht 10 km of meer
Weinig wolken op 3500 ft
Wijzigt naar
van 24 om 15 UTC tot 24 om 17 UTC
Wind kt uit het noorden
Zicht 10 km of meer
geen wolken onder 1500 m en geen cumulonimbus

TAF: HBBA 231700Z 2318/2424 00000KT CAVOK BECMG 2402/2404 36002KT 9999 FEW025 BKN100 BECMG 2407/2409 18010G25KT 9999 FEW035 BECMG 2415/2417 00000KT CAVOK

Waarnemingen en weersverwachtingen van meer dan 4000 vliegvelden (METAR en TAF).

De beschikbare stations zijn de gele en rode punten op de kaart.

Ga met uw muis naar het station om de naam te zien.

Klik dan om waarnemingen en weersverwachtingen te zien.

kaart wijzigen: klik op de groene knoppen met een zwart kruis om in te zoomen, op de groene knop met een streepje om uit te zoomen of op de groene pijlen voor aangrenzende kaarten.


METAR-TAF: